Time;durP1;ratioP1;P1;durP2;ratioP2;P2;SDS_P1;SDS_P2;PMS_P1;PMS_P2;Temp;Humidity;BMP_temperature;BMP_pressure;BME280_temperature;BME280_humidity;BME280_pressure;Samples;Min_cycle;Max_cycle;Signal;HPM_P1;HPM_P2
2023/05/01 00:00:48;;;;;;;2.55;1.50;;;;;;;9.41;100.00;92502.50;5054079;28;20049;-77
2023/05/01 00:03:16;;;;;;;2.88;1.60;;;;;;;9.24;100.00;92474.97;5072972;28;20029;-77
2023/05/01 00:05:45;;;;;;;3.63;1.60;;;;;;;9.38;100.00;92491.53;5070933;28;20023;-77
2023/05/01 00:08:11;;;;;;;3.30;1.75;;;;;;;9.40;100.00;92493.88;5070930;28;20045;-77
2023/05/01 00:10:38;;;;;;;2.53;1.60;;;;;;;9.41;100.00;92502.50;5071556;28;20524;-77
2023/05/01 00:13:03;;;;;;;3.85;1.52;;;;;;;9.39;100.00;92494.94;5071619;28;20033;-77
2023/05/01 00:15:30;;;;;;;5.18;1.80;;;;;;;9.35;100.00;92496.56;5034634;28;20040;-77
2023/05/01 00:17:56;;;;;;;2.22;1.35;;;;;;;9.32;100.00;92503.13;5053515;28;20124;-77
2023/05/01 00:20:25;;;;;;;2.95;1.60;;;;;;;9.31;100.00;92490.31;5050289;28;20055;-77
2023/05/01 00:22:51;;;;;;;3.92;1.52;;;;;;;9.30;100.00;92493.97;5069585;28;20098;-77
2023/05/01 00:25:17;;;;;;;2.35;1.50;;;;;;;9.31;100.00;92493.72;5071998;28;20037;-77
2023/05/01 00:27:43;;;;;;;2.40;1.40;;;;;;;9.32;100.00;92481.41;5072428;28;20569;-77
2023/05/01 00:30:09;;;;;;;2.67;1.67;;;;;;;9.33;100.00;92483.00;5070137;28;20044;-77
2023/05/01 00:32:34;;;;;;;2.17;1.55;;;;;;;9.31;100.00;92491.09;5070699;28;20071;-77
2023/05/01 00:35:00;;;;;;;2.47;1.60;;;;;;;9.34;100.00;92489.75;5071426;28;20127;-77
2023/05/01 00:37:26;;;;;;;2.83;1.52;;;;;;;9.34;100.00;92480.09;5070310;28;20125;-77
2023/05/01 00:39:51;;;;;;;2.85;1.73;;;;;;;9.29;100.00;92480.16;5069585;28;20086;-77
2023/05/01 00:42:17;;;;;;;3.63;1.80;;;;;;;9.33;100.00;92483.75;5054642;28;20028;-77
2023/05/01 00:44:43;;;;;;;3.42;1.80;;;;;;;9.35;100.00;92481.66;5053093;28;20562;-76
2023/05/01 00:47:08;;;;;;;2.97;1.40;;;;;;;9.34;100.00;92481.91;5069753;28;20047;-78
2023/05/01 00:49:35;;;;;;;2.38;1.60;;;;;;;9.28;100.00;92477.81;5069858;28;20398;-78
2023/05/01 00:52:00;;;;;;;2.83;1.92;;;;;;;9.27;100.00;92477.03;5052525;28;20040;-78
2023/05/01 00:54:27;;;;;;;3.75;1.85;;;;;;;9.28;100.00;92486.44;5071015;28;20047;-78
2023/05/01 00:56:53;;;;;;;3.00;1.90;;;;;;;9.26;100.00;92483.31;5071872;28;20036;-78
2023/05/01 00:59:18;;;;;;;2.60;1.70;;;;;;;9.25;100.00;92486.97;5054106;28;20039;-78
2023/05/01 01:01:44;;;;;;;3.30;1.90;;;;;;;9.26;100.00;92478.09;5075390;28;20141;-78
2023/05/01 01:04:10;;;;;;;5.38;2.10;;;;;;;9.28;100.00;92473.38;5073321;28;20470;-78
2023/05/01 01:06:57;;;;;;;3.58;2.10;;;;;;;9.29;100.00;92472.31;5072379;28;20028;-78
2023/05/01 01:09:53;;;;;;;2.78;1.92;;;;;;;9.30;100.00;92471.25;5068515;28;20108;-78
2023/05/01 01:12:55;;;;;;;2.63;1.83;;;;;;;9.30;100.00;92473.06;5053867;28;20029;-78
2023/05/01 01:15:24;;;;;;;3.33;2.00;;;;;;;9.31;100.00;92470.19;5065641;28;20035;-78
2023/05/01 01:18:08;;;;;;;2.47;1.70;;;;;;;9.35;100.00;92467.81;5036917;28;20135;-78
2023/05/01 01:20:53;;;;;;;3.00;1.95;;;;;;;9.31;100.00;92459.75;5052320;28;20550;-77
2023/05/01 01:23:38;;;;;;;3.20;1.90;;;;;;;9.35;100.00;92454.75;5068470;28;20398;-78
2023/05/01 01:26:16;;;;;;;3.10;2.08;;;;;;;9.32;100.00;92465.75;5087787;28;20035;-78
2023/05/01 01:29:23;;;;;;;3.17;1.98;;;;;;;9.24;100.00;92459.31;5072897;28;20315;-78
2023/05/01 01:32:07;;;;;;;3.28;1.92;;;;;;;9.24;100.00;92458.53;5072440;28;20020;-78
2023/05/01 01:34:39;;;;;;;2.60;1.70;;;;;;;9.21;100.00;92454.66;5069615;28;20406;-78
2023/05/01 01:37:11;;;;;;;3.10;2.10;;;;;;;9.23;100.00;92452.53;5054058;28;20410;-77
2023/05/01 01:39:43;;;;;;;3.47;2.05;;;;;;;9.25;100.00;92447.78;5072360;28;20032;-78
2023/05/01 01:42:18;;;;;;;3.55;1.90;;;;;;;9.18;100.00;92449.97;5070921;28;20048;-77
2023/05/01 01:44:53;;;;;;;3.13;1.75;;;;;;;9.14;100.00;92441.91;5070303;28;20028;-78
2023/05/01 01:47:20;;;;;;;3.92;2.03;;;;;;;9.15;100.00;92442.69;5070752;28;20039;-77
2023/05/01 01:49:51;;;;;;;3.85;1.70;;;;;;;9.09;100.00;92441.19;5055158;28;20028;-78
2023/05/01 01:52:17;;;;;;;3.35;2.08;;;;;;;9.03;100.00;92448.31;5070201;28;20036;-77
2023/05/01 01:54:51;;;;;;;36.35;2.95;;;;;;;8.96;100.00;92450.44;5055500;28;20040;-78
2023/05/01 01:57:19;;;;;;;8.23;2.00;;;;;;;9.10;100.00;92453.19;5073077;28;20043;-78
2023/05/01 01:59:47;;;;;;;19.13;2.67;;;;;;;9.05;100.00;92450.63;5071632;28;20036;-78
2023/05/01 02:02:16;;;;;;;8.02;2.50;;;;;;;9.03;100.00;92452.72;5053372;28;20036;-78
2023/05/01 02:04:43;;;;;;;2.70;1.85;;;;;;;9.00;100.00;92458.50;5054864;28;20032;-77
2023/05/01 02:07:11;;;;;;;2.85;2.20;;;;;;;9.00;100.00;92451.44;5054643;28;20047;-78
2023/05/01 02:09:38;;;;;;;2.80;2.00;;;;;;;9.02;100.00;92459.00;5070473;28;20054;-77
2023/05/01 02:12:06;;;;;;;2.85;2.00;;;;;;;8.99;100.00;92449.13;5072005;28;20033;-78
2023/05/01 02:14:33;;;;;;;4.20;2.00;;;;;;;8.99;100.00;92451.75;5069333;28;20124;-77
2023/05/01 02:16:58;;;;;;;4.03;1.88;;;;;;;9.00;100.00;92442.84;5049321;28;20056;-77
2023/05/01 02:19:25;;;;;;;3.30;2.00;;;;;;;9.00;100.00;92443.63;5052137;28;20053;-77
2023/05/01 02:21:54;;;;;;;5.07;2.15;;;;;;;8.99;100.00;92442.06;5062780;28;20037;-78
2023/05/01 02:24:23;;;;;;;3.10;2.00;;;;;;;9.04;100.00;92438.63;5071341;28;20032;-78
2023/05/01 02:27:02;;;;;;;2.95;1.98;;;;;;;9.06;100.00;92446.97;5071109;28;20498;-78
2023/05/01 02:29:28;;;;;;;3.30;1.98;;;;;;;9.08;100.00;92444.88;5072455;28;20067;-78
2023/05/01 02:31:54;;;;;;;3.63;2.20;;;;;;;9.12;100.00;92446.66;5059233;28;20498;-77
2023/05/01 02:34:21;;;;;;;3.00;1.73;;;;;;;9.10;100.00;92432.31;5072680;28;20032;-77
2023/05/01 02:36:46;;;;;;;2.88;1.90;;;;;;;9.15;100.00;92433.03;5041502;28;20032;-78
2023/05/01 02:39:12;;;;;;;3.35;1.73;;;;;;;9.14;100.00;92433.28;5075073;28;20045;-78
2023/05/01 02:41:40;;;;;;;2.50;1.80;;;;;;;9.13;100.00;92421.28;5073238;28;20036;-78
2023/05/01 02:44:10;;;;;;;2.45;1.67;;;;;;;9.11;100.00;92423.41;5071519;28;20374;-78
2023/05/01 02:46:37;;;;;;;2.88;1.77;;;;;;;9.16;100.00;92423.34;5072333;28;20056;-78
2023/05/01 02:49:05;;;;;;;4.47;1.75;;;;;;;9.10;100.00;92425.25;5070981;28;20044;-78
2023/05/01 02:51:31;;;;;;;2.65;1.73;;;;;;;9.11;100.00;92429.41;5073530;28;20410;-79
2023/05/01 02:53:58;;;;;;;189.02;5.97;;;;;;;9.04;100.00;92415.13;5072996;28;20565;-78
2023/05/01 02:56:26;;;;;;;93.57;4.07;;;;;;;9.07;100.00;92417.19;5052734;28;20029;-76
2023/05/01 02:58:53;;;;;;;59.60;3.13;;;;;;;9.06;100.00;92415.63;5070455;28;20494;-78
2023/05/01 03:01:19;;;;;;;19.55;2.20;;;;;;;9.05;100.00;92414.06;5073555;28;20098;-78
2023/05/01 03:03:45;;;;;;;2.78;1.80;;;;;;;9.02;100.00;92406.78;5057324;28;20036;-78
2023/05/01 03:06:13;;;;;;;3.92;1.92;;;;;;;9.03;100.00;92398.69;5056158;28;20030;-78
2023/05/01 03:08:39;;;;;;;3.00;2.00;;;;;;;9.05;100.00;92401.81;5057579;28;20505;-77
2023/05/01 03:11:05;;;;;;;2.85;1.95;;;;;;;9.05;100.00;92398.41;5067740;28;20131;-77
2023/05/01 03:13:32;;;;;;;3.00;1.90;;;;;;;9.02;100.00;92394.50;5055776;28;20031;-77
2023/05/01 03:15:57;;;;;;;2.83;2.00;;;;;;;9.02;100.00;92393.75;5054020;28;20037;-77
2023/05/01 03:18:23;;;;;;;2.90;1.55;;;;;;;9.05;100.00;92393.19;5071792;28;20173;-77
2023/05/01 03:20:53;;;;;;;2.58;1.70;;;;;;;9.11;100.00;92392.06;5064267;28;20132;-78
2023/05/01 03:23:20;;;;;;;2.80;1.70;;;;;;;9.10;100.00;92401.75;5060009;28;20040;-77
2023/05/01 03:25:46;;;;;;;486.02;11.90;;;;;;;9.13;100.00;92405.63;5072487;28;20032;-77
2023/05/01 03:28:13;;;;;;;195.07;4.88;;;;;;;9.02;100.00;92399.75;5054626;28;20097;-77
2023/05/01 03:30:39;;;;;;;519.72;11.43;;;;;;;8.94;100.00;92390.69;5071394;28;20097;-77
2023/05/01 03:33:04;;;;;;;283.02;7.18;;;;;;;8.93;100.00;92394.34;5055587;28;20033;-77
2023/05/01 03:35:31;;;;;;;239.32;6.43;;;;;;;8.88;100.00;92399.63;5072060;28;20027;-77
2023/05/01 03:37:57;;;;;;;89.68;3.95;;;;;;;8.90;100.00;92397.53;5053962;28;20648;-78
2023/05/01 03:40:41;;;;;;;8.20;2.05;;;;;;;8.86;100.00;92383.47;5044782;28;20040;-78
2023/05/01 03:43:25;;;;;;;8.15;2.10;;;;;;;8.87;100.00;92381.63;5067310;28;20086;-78
2023/05/01 03:45:52;;;;;;;4.55;2.08;;;;;;;8.89;100.00;92377.69;5072110;28;20520;-77
2023/05/01 03:48:18;;;;;;;3.97;2.00;;;;;;;8.91;100.00;92380.78;5070036;28;20124;-77
2023/05/01 03:50:45;;;;;;;2.70;1.80;;;;;;;8.89;100.00;92382.13;5071237;28;20158;-77
2023/05/01 03:53:12;;;;;;;3.00;1.88;;;;;;;8.91;100.00;92380.00;5071292;28;20133;-77
2023/05/01 03:55:39;;;;;;;2.53;1.70;;;;;;;8.90;100.00;92381.09;5071932;28;20028;-77
2023/05/01 03:58:05;;;;;;;2.25;1.58;;;;;;;8.91;100.00;92383.41;5072030;28;20064;-77
2023/05/01 04:00:32;;;;;;;2.58;1.80;;;;;;;8.89;100.00;92382.94;5070157;28;20037;-77
2023/05/01 04:02:57;;;;;;;2.13;1.60;;;;;;;8.90;100.00;92381.84;5070403;28;20032;-77
2023/05/01 04:05:23;;;;;;;284.75;7.93;;;;;;;8.86;100.00;92383.47;5071067;28;20632;-77
2023/05/01 04:07:52;;;;;;;988.42;26.08;;;;;;;8.88;100.00;92376.13;5069991;28;20039;-77
2023/05/01 04:10:18;;;;;;;1190.50;31.10;;;;;;;8.69;100.00;92377.88;5070805;28;20037;-77
2023/05/01 04:12:52;;;;;;;918.25;23.10;;;;;;;8.69;100.00;92380.50;5068665;28;20064;-77
2023/05/01 04:15:17;;;;;;;124.40;3.67;;;;;;;8.75;100.00;92379.41;5071261;28;20056;-77
2023/05/01 04:17:43;;;;;;;420.17;9.82;;;;;;;8.69;100.00;92375.28;5071492;28;20036;-77
2023/05/01 04:20:09;;;;;;;105.30;3.55;;;;;;;8.69;100.00;92373.47;5070630;28;20056;-77
2023/05/01 04:22:36;;;;;;;177.25;4.63;;;;;;;8.70;100.00;92366.41;5070537;28;20389;-77
2023/05/01 04:25:03;;;;;;;95.30;3.55;;;;;;;8.86;100.00;92380.84;5071657;28;20094;-77
2023/05/01 04:27:30;;;;;;;70.15;2.97;;;;;;;8.75;100.00;92387.22;5070376;28;20040;-77
2023/05/01 04:29:56;;;;;;;525.90;11.82;;;;;;;8.74;100.00;92380.47;5052386;28;20028;-78
2023/05/01 04:32:22;;;;;;;42.13;2.03;;;;;;;8.69;100.00;92380.50;5054307;28;20406;-77
2023/05/01 04:34:48;;;;;;;24.13;1.80;;;;;;;8.65;100.00;92379.50;5072344;28;20039;-78
2023/05/01 04:37:16;;;;;;;5.10;1.52;;;;;;;8.66;100.00;92384.44;5069912;28;20041;-78
2023/05/01 04:39:42;;;;;;;2.53;1.35;;;;;;;8.69;100.00;92386.50;5051161;28;20029;-78
2023/05/01 04:42:08;;;;;;;77.55;3.80;;;;;;;8.78;100.00;92384.09;5053925;28;20581;-78
2023/05/01 04:44:35;;;;;;;655.70;14.95;;;;;;;8.67;100.00;92393.84;5070920;28;20117;-77
2023/05/01 04:47:02;;;;;;;196.13;5.85;;;;;;;8.64;100.00;92394.38;5049815;28;20552;-77
2023/05/01 04:49:28;;;;;;;351.90;8.60;;;;;;;8.55;100.00;92391.59;5050071;28;20411;-77
2023/05/01 04:51:54;;;;;;;153.93;4.78;;;;;;;8.55;100.00;92391.59;5033882;28;20040;-78
2023/05/01 04:54:22;;;;;;;306.27;5.68;;;;;;;8.57;100.00;92400.97;5050781;28;20036;-77
2023/05/01 04:56:48;;;;;;;340.90;6.38;;;;;;;8.55;100.00;92393.41;5050738;28;20040;-78
2023/05/01 04:59:13;;;;;;;187.02;4.78;;;;;;;8.58;100.00;92403.31;5067139;28;20044;-77
2023/05/01 05:01:39;;;;;;;60.88;2.20;;;;;;;8.59;100.00;92404.09;5039374;28;20494;-78
2023/05/01 05:04:05;;;;;;;72.95;2.28;;;;;;;8.59;100.00;92396.28;5052194;28;20037;-78
2023/05/01 05:06:30;;;;;;;15.43;1.67;;;;;;;8.61;100.00;92400.16;5015438;28;20044;-77
2023/05/01 05:08:57;;;;;;;5.72;1.35;;;;;;;8.64;100.00;92409.25;5036346;28;20079;-78
2023/05/01 05:11:22;;;;;;;1.90;1.40;;;;;;;8.63;100.00;92411.09;5041749;28;20499;-78
2023/05/01 05:14:01;;;;;;;1.52;1.30;;;;;;;8.66;100.00;92407.16;5054066;28;20490;-78
2023/05/01 05:16:27;;;;;;;1.40;1.30;;;;;;;8.72;100.00;92411.28;5070804;28;20047;-78
2023/05/01 05:18:55;;;;;;;1.75;1.38;;;;;;;8.72;100.00;92406.84;5054084;28;20039;-77
2023/05/01 05:21:21;;;;;;;1.98;1.30;;;;;;;8.77;100.00;92395.56;5071319;28;20138;-78
2023/05/01 05:23:50;;;;;;;2.22;1.42;;;;;;;8.77;100.00;92398.16;5069460;28;20030;-78
2023/05/01 05:26:16;;;;;;;2.80;1.63;;;;;;;8.76;100.00;92396.63;5070981;28;20049;-78
2023/05/01 05:28:42;;;;;;;2.83;1.70;;;;;;;8.75;100.00;92408.88;5070928;28;20059;-78
2023/05/01 05:31:08;;;;;;;2.40;1.60;;;;;;;8.81;100.00;92414.06;5071289;28;20062;-78
2023/05/01 05:33:34;;;;;;;2.13;1.60;;;;;;;8.80;100.00;92407.28;5052881;28;20036;-78
2023/05/01 05:36:00;;;;;;;682.20;15.98;;;;;;;8.69;100.00;92409.19;5069746;28;20043;-78
2023/05/01 05:38:31;;;;;;;305.33;9.20;;;;;;;8.61;100.00;92409.81;5067675;28;20054;-78
2023/05/01 05:40:59;;;;;;;388.27;8.02;;;;;;;8.64;100.00;92410.03;5068491;28;20417;-78
2023/05/01 05:43:25;;;;;;;190.13;4.20;;;;;;;8.56;100.00;92408.03;5070759;28;20459;-77
2023/05/01 05:45:55;;;;;;;184.48;4.93;;;;;;;8.55;100.00;92401.25;5065352;28;20060;-78
2023/05/01 05:48:21;;;;;;;131.35;4.35;;;;;;;8.58;100.00;92410.34;5055855;28;20315;-77
2023/05/01 05:50:49;;;;;;;35.25;2.10;;;;;;;8.79;100.00;92419.56;5063142;28;20063;-77
2023/05/01 05:53:15;;;;;;;154.77;3.65;;;;;;;8.72;100.00;92416.50;5070127;28;20024;-77
2023/05/01 05:55:42;;;;;;;63.05;2.53;;;;;;;8.66;100.00;92420.97;5067896;28;20086;-77
2023/05/01 05:58:08;;;;;;;56.92;2.70;;;;;;;8.57;100.00;92419.25;5067704;28;20064;-77
2023/05/01 06:00:35;;;;;;;9.23;2.42;;;;;;;8.49;100.00;92407.59;5069943;28;20033;-78
2023/05/01 06:03:04;;;;;;;113.80;3.30;;;;;;;8.44;100.00;92412.81;5048393;28;20536;-77
2023/05/01 06:05:31;;;;;;;35.28;2.40;;;;;;;8.56;100.00;92413.25;5049061;28;20040;-77
2023/05/01 06:07:56;;;;;;;76.05;2.25;;;;;;;8.53;100.00;92419.81;5052047;28;20067;-80
2023/05/01 06:10:22;;;;;;;145.63;4.15;;;;;;;8.47;100.00;92410.47;5072082;28;20025;-78
2023/05/01 06:12:48;;;;;;;203.63;5.30;;;;;;;8.39;100.00;92424.06;5058382;28;20033;-78
2023/05/01 06:15:15;;;;;;;82.10;2.97;;;;;;;8.33;100.00;92425.13;5069499;28;20043;-77
2023/05/01 06:17:44;;;;;;;140.50;3.22;;;;;;;8.38;100.00;92430.34;5069499;28;20043;-77
2023/05/01 06:20:11;;;;;;;158.90;3.40;;;;;;;8.29;100.00;92424.16;5051601;28;20526;-77
2023/05/01 06:22:36;;;;;;;66.82;2.65;;;;;;;8.34;100.00;92431.94;5036080;28;20571;-80
2023/05/01 06:25:14;;;;;;;41.00;2.60;;;;;;;8.41;100.00;92436.84;5065675;28;20067;-78
2023/05/01 06:27:40;;;;;;;32.90;2.03;;;;;;;8.40;100.00;92432.66;5056911;28;20040;-77
2023/05/01 06:30:07;;;;;;;2.38;1.10;;;;;;;8.40;100.00;92424.81;5049288;28;20041;-78
2023/05/01 06:32:33;;;;;;;1.27;1.02;;;;;;;8.44;100.00;92424.03;5047617;28;20036;-78
2023/05/01 06:34:59;;;;;;;3.35;1.10;;;;;;;8.55;100.00;92432.56;5050069;28;20039;-79
2023/05/01 06:37:25;;;;;;;2.00;1.40;;;;;;;8.49;100.00;92428.47;5059694;28;20032;-77
2023/05/01 06:39:50;;;;;;;2.72;1.50;;;;;;;8.52;100.00;92433.88;5043378;28;20044;-77
2023/05/01 06:42:16;;;;;;;2.60;1.60;;;;;;;8.49;100.00;92429.22;5049469;28;20055;-79
2023/05/01 06:44:42;;;;;;;2.70;1.60;;;;;;;8.53;100.00;92432.84;5051880;28;20402;-78
2023/05/01 06:47:08;;;;;;;3.45;2.10;;;;;;;8.52;100.00;92439.09;5045116;28;20071;-79
2023/05/01 06:49:34;;;;;;;2.72;1.70;;;;;;;8.61;100.00;92435.91;5070093;28;20033;-79
2023/05/01 06:52:00;;;;;;;2.15;1.52;;;;;;;8.61;100.00;92436.69;5066631;28;20117;-77
2023/05/01 06:54:26;;;;;;;3.78;1.70;;;;;;;8.68;100.00;92442.34;5076228;28;20037;-78
2023/05/01 06:56:52;;;;;;;2.80;1.70;;;;;;;8.69;100.00;92443.13;5051946;28;20043;-78
2023/05/01 06:59:18;;;;;;;2.10;1.42;;;;;;;8.74;100.00;92443.09;5041555;28;20513;-78
2023/05/01 07:01:44;;;;;;;3.03;1.70;;;;;;;8.77;100.00;92441.78;5070078;28;20033;-78
2023/05/01 07:04:09;;;;;;;3.95;2.13;;;;;;;8.79;100.00;92439.66;5066630;28;20040;-82
2023/05/01 07:06:36;;;;;;;3.50;2.17;;;;;;;8.83;100.00;92451.88;5071937;28;20038;-81
2023/05/01 07:09:02;;;;;;;3.58;2.30;;;;;;;8.83;100.00;92444.06;5067383;28;20041;-78
2023/05/01 07:11:28;;;;;;;3.47;2.30;;;;;;;8.83;100.00;92444.06;5033419;28;20044;-78
2023/05/01 07:13:54;;;;;;;4.47;2.20;;;;;;;8.84;100.00;92443.00;5066698;28;20096;-79
2023/05/01 07:16:20;;;;;;;3.55;2.13;;;;;;;8.84;100.00;92445.59;5072931;28;20047;-78
2023/05/01 07:18:45;;;;;;;3.60;2.40;;;;;;;8.86;100.00;92448.72;5050954;28;20036;-77
2023/05/01 07:21:11;;;;;;;4.82;2.35;;;;;;;8.86;100.00;92448.72;5074118;28;20415;-78
2023/05/01 07:23:37;;;;;;;3.92;2.22;;;;;;;8.88;100.00;92446.63;5069402;28;20387;-77
2023/05/01 07:26:04;;;;;;;3.80;2.42;;;;;;;8.85;100.00;92447.19;5070578;28;20036;-77
2023/05/01 07:28:30;;;;;;;4.22;2.40;;;;;;;8.85;100.00;92448.97;5069646;28;20040;-78
2023/05/01 07:30:56;;;;;;;3.80;2.70;;;;;;;8.84;100.00;92448.22;5072040;28;20028;-78
2023/05/01 07:33:23;;;;;;;4.55;2.92;;;;;;;8.86;100.00;92448.72;5070819;28;20549;-77
2023/05/01 07:35:49;;;;;;;4.80;2.90;;;;;;;8.86;100.00;92451.31;5070028;28;20055;-78
2023/05/01 07:38:15;;;;;;;4.07;2.75;;;;;;;8.85;100.00;92448.97;5070233;28;20025;-78
2023/05/01 07:40:41;;;;;;;6.50;3.00;;;;;;;8.90;100.00;92449.72;5078583;28;20473;-80
2023/05/01 07:43:09;;;;;;;4.95;3.38;;;;;;;8.93;100.00;92456.22;5073145;28;20071;-79
2023/05/01 07:45:38;;;;;;;6.97;3.00;;;;;;;9.02;100.00;92461.63;5067496;28;20040;-78
2023/05/01 07:48:04;;;;;;;4.90;3.20;;;;;;;9.07;100.00;92462.34;5069852;28;20063;-79
2023/05/01 07:50:30;;;;;;;4.80;3.30;;;;;;;9.16;100.00;92459.91;5074582;28;20193;-77
2023/05/01 07:52:56;;;;;;;3.80;2.50;;;;;;;9.16;100.00;92458.09;5070812;28;20079;-79
2023/05/01 07:55:23;;;;;;;4.53;3.20;;;;;;;9.22;100.00;92471.09;5069566;28;20044;-79
2023/05/01 07:57:49;;;;;;;4.93;3.30;;;;;;;9.22;100.00;92464.03;5068235;28;20033;-78
2023/05/01 08:00:15;;;;;;;4.78;3.38;;;;;;;9.29;100.00;92464.47;5071530;28;20032;-78
2023/05/01 08:02:41;;;;;;;5.00;3.50;;;;;;;9.30;100.00;92466.03;5072121;28;20033;-77
2023/05/01 08:05:08;;;;;;;4.38;2.90;;;;;;;9.31;100.00;92467.59;5072990;28;20564;-78
2023/05/01 08:07:33;;;;;;;4.85;3.40;;;;;;;9.36;100.00;92467.53;5076748;28;20466;-78
2023/05/01 08:09:59;;;;;;;5.72;3.15;;;;;;;9.38;100.00;92472.47;5044625;28;20041;-78
2023/05/01 08:12:25;;;;;;;5.88;3.10;;;;;;;9.43;100.00;92471.63;5055876;28;20041;-78
2023/05/01 08:14:51;;;;;;;5.10;2.60;;;;;;;9.47;100.00;92472.66;5077425;28;20039;-78
2023/05/01 08:17:17;;;;;;;5.88;2.95;;;;;;;9.52;100.00;92473.34;5043656;28;20079;-79
2023/05/01 08:19:44;;;;;;;4.75;3.10;;;;;;;9.54;100.00;92468.63;5060964;28;20044;-78
2023/05/01 08:22:09;;;;;;;5.35;2.90;;;;;;;9.69;100.00;92480.75;5080486;28;20115;-81
2023/05/01 08:24:35;;;;;;;4.40;2.72;;;;;;;9.75;100.00;92486.69;5077874;28;20063;-79
2023/05/01 08:27:01;;;;;;;5.80;2.92;;;;;;;9.80;100.00;92490.00;5064091;28;20036;-79
2023/05/01 08:29:27;;;;;;;7.38;3.55;;;;;;;9.83;100.00;92490.50;5062596;28;20381;-79
2023/05/01 08:31:52;;;;;;;4.63;2.92;;;;;;;9.82;100.00;92484.50;5071788;28;20096;-78
2023/05/01 08:34:18;;;;;;;4.50;3.03;;;;;;;9.81;100.00;92490.78;5081651;28;20040;-79
2023/05/01 08:36:43;;;;;;;4.28;2.85;;;;;;;9.80;100.00;92491.84;5078196;28;20122;-78
2023/05/01 08:39:09;;;;;;;4.65;3.10;;;;;;;9.80;100.00;92491.84;5075477;28;20044;-78
2023/05/01 08:41:37;;;;;;;4.32;3.00;;;;;;;9.83;100.00;92499.13;5075055;28;20397;-79
2023/05/01 08:44:04;;;;;;;4.15;2.63;;;;;;;9.87;100.00;92497.50;5074191;28;20070;-79
2023/05/01 08:46:37;;;;;;;4.47;2.80;;;;;;;9.92;100.00;92496.66;5072315;28;20036;-81
2023/05/01 08:49:04;;;;;;;4.00;2.90;;;;;;;9.96;100.00;92492.44;5066555;28;20044;-78
2023/05/01 08:51:32;;;;;;;5.05;3.00;;;;;;;9.98;100.00;92491.09;5072304;28;20896;-78
2023/05/01 08:53:59;;;;;;;4.15;2.80;;;;;;;10.02;100.00;92493.94;5074663;28;20123;-78
2023/05/01 08:56:25;;;;;;;3.90;2.80;;;;;;;10.07;100.00;92496.47;5064700;28;20037;-80
2023/05/01 08:58:52;;;;;;;3.92;2.58;;;;;;;10.11;100.00;92494.84;5071346;28;20093;-78
2023/05/01 09:01:21;;;;;;;4.63;2.97;;;;;;;10.09;100.00;92494.38;5068054;28;20044;-77
2023/05/01 09:03:49;;;;;;;4.75;2.83;;;;;;;10.14;100.00;92489.06;5074742;28;20029;-79
2023/05/01 09:06:15;;;;;;;4.30;2.80;;;;;;;10.16;100.00;92488.78;5080517;28;20096;-79
2023/05/01 09:08:40;;;;;;;5.75;3.22;;;;;;;10.15;100.00;92490.59;5076026;28;20052;-80
2023/05/01 09:11:06;;;;;;;4.57;2.90;;;;;;;10.23;100.00;92488.44;5074174;28;20473;-80
2023/05/01 09:13:32;;;;;;;5.38;2.75;;;;;;;10.26;100.00;92482.63;5077394;28;20044;-80
2023/05/01 09:15:59;;;;;;;4.43;2.92;;;;;;;10.34;100.00;92489.88;5070397;28;20045;-79
2023/05/01 09:18:25;;;;;;;4.03;2.83;;;;;;;10.40;100.00;92492.13;5055112;28;20032;-78
2023/05/01 09:20:50;;;;;;;5.35;3.00;;;;;;;10.43;100.00;92493.41;5072709;28;20094;-79
2023/05/01 09:23:17;;;;;;;4.38;2.67;;;;;;;10.49;100.00;92494.09;5077508;28;20039;-78
2023/05/01 09:25:42;;;;;;;4.43;2.90;;;;;;;10.54;100.00;92504.50;5070230;28;20044;-79
2023/05/01 09:28:08;;;;;;;4.68;2.95;;;;;;;10.58;100.00;92503.63;5071545;28;20032;-78
2023/05/01 09:30:36;;;;;;;5.82;2.75;;;;;;;10.62;100.00;92501.97;5072023;28;20041;-79
2023/05/01 09:33:09;;;;;;;4.50;3.10;;;;;;;10.70;100.00;92491.94;5077341;28;20103;-80
2023/05/01 09:35:53;;;;;;;4.25;2.85;;;;;;;10.73;100.00;92496.59;5075144;28;20036;-80
2023/05/01 09:38:21;;;;;;;4.10;2.60;;;;;;;10.76;100.00;92494.19;5077826;28;20054;-80
2023/05/01 09:40:46;;;;;;;6.50;2.60;;;;;;;10.79;100.00;92495.47;5069757;28;20035;-82
2023/05/01 09:43:12;;;;;;;3.92;2.70;;;;;;;10.79;100.00;92500.69;5068707;28;20028;-80
2023/05/01 09:45:39;;;;;;;4.20;2.88;;;;;;;10.82;100.00;92500.13;5077078;28;20519;-80
2023/05/01 09:48:12;;;;;;;3.63;2.40;;;;;;;10.88;100.00;92501.59;5074884;28;20414;-78
2023/05/01 09:50:41;;;;;;;4.00;2.60;;;;;;;10.86;100.00;92497.72;5072864;28;20119;-77
2023/05/01 09:53:07;;;;;;;5.38;2.67;;;;;;;10.87;100.00;92492.16;5075339;28;20032;-81
2023/05/01 09:55:33;;;;;;;4.47;3.10;;;;;;;10.92;100.00;92493.94;5075052;28;20074;-79
2023/05/01 09:57:59;;;;;;;6.85;3.05;;;;;;;11.00;100.00;92501.91;5071972;28;20083;-79
2023/05/01 10:00:25;;;;;;;5.32;2.50;;;;;;;11.01;100.00;92493.00;5072395;28;20032;-80
2023/05/01 10:02:51;;;;;;;3.90;2.70;;;;;;;10.97;100.00;92492.03;5071566;28;20032;-79
2023/05/01 10:05:18;;;;;;;4.82;3.10;;;;;;;10.89;100.00;92495.28;5068730;28;20119;-79
2023/05/01 10:08:13;;;;;;;3.97;2.88;;;;;;;10.90;100.00;92496.06;5072224;28;20114;-78
2023/05/01 10:10:42;;;;;;;6.05;3.25;;;;;;;10.88;100.00;92498.97;5072203;28;20110;-79
2023/05/01 10:13:15;;;;;;;4.38;2.90;;;;;;;10.86;100.00;92487.25;5071012;28;20170;-79
2023/05/01 10:15:41;;;;;;;4.40;2.80;;;;;;;10.95;100.00;92493.38;5073604;28;20037;-78
2023/05/01 10:18:09;;;;;;;5.65;3.03;;;;;;;10.90;100.00;92491.63;5076590;28;20036;-80
2023/05/01 10:20:35;;;;;;;4.03;2.80;;;;;;;10.98;100.00;92492.78;5071128;28;20048;-79
2023/05/01 10:23:04;;;;;;;4.25;3.03;;;;;;;11.03;100.00;92488.25;5055487;28;20045;-79
2023/05/01 10:25:30;;;;;;;4.97;3.42;;;;;;;11.16;100.00;92488.56;5057782;28;20037;-79
2023/05/01 10:27:56;;;;;;;4.93;3.40;;;;;;;11.28;100.00;92488.06;5073320;28;20398;-79
2023/05/01 10:30:22;;;;;;;6.25;3.80;;;;;;;11.43;100.00;92488.56;5070891;28;20028;-78
2023/05/01 10:32:48;;;;;;;6.72;3.83;;;;;;;11.55;100.00;92489.94;5073219;28;20055;-78
2023/05/01 10:35:25;;;;;;;5.07;3.40;;;;;;;11.59;100.00;92489.06;5072237;28;20043;-77
2023/05/01 10:37:57;;;;;;;5.68;3.53;;;;;;;11.61;100.00;92486.16;5065808;28;20036;-78
2023/05/01 10:40:38;;;;;;;4.93;3.40;;;;;;;11.60;100.00;92485.38;5066053;28;20036;-78
2023/05/01 10:43:29;;;;;;;5.43;3.35;;;;;;;11.54;100.00;92481.31;5067929;28;20036;-79
2023/05/01 10:46:07;;;;;;;346.23;11.13;;;;;;;11.49;100.00;92485.88;5068413;28;20035;-77
2023/05/01 10:48:39;;;;;;;465.27;13.48;;;;;;;11.12;100.00;92477.09;5064316;28;20033;-77
2023/05/01 10:51:19;;;;;;;429.95;12.93;;;;;;;10.69;100.00;92479.91;5075559;28;20498;-78
2023/05/01 10:54:05;;;;;;;820.50;23.95;;;;;;;10.36;100.00;92472.81;5074811;28;20094;-78
2023/05/01 10:56:41;;;;;;;489.38;15.40;;;;;;;10.04;100.00;92485.78;5062148;28;20127;-79
2023/05/01 10:59:07;;;;;;;52.05;6.97;;;;;;;9.78;100.00;92483.50;5078177;28;20074;-78
2023/05/01 11:01:44;;;;;;;5.20;4.20;;;;;;;9.65;100.00;92478.97;5075240;28;20037;-78
2023/05/01 11:04:19;;;;;;;5.05;3.70;;;;;;;9.71;100.00;92477.84;5074546;28;20044;-78
2023/05/01 11:07:07;;;;;;;4.60;3.40;;;;;;;9.73;100.00;92471.28;5078708;28;20498;-77
2023/05/01 11:09:37;;;;;;;6.03;3.13;;;;;;;9.66;100.00;92470.84;5079513;28;20063;-78
2023/05/01 11:12:03;;;;;;;6.28;3.55;;;;;;;9.69;100.00;92474.75;5077492;28;20039;-77
2023/05/01 11:14:51;;;;;;;4.63;3.10;;;;;;;9.72;100.00;92469.72;5077046;28;20029;-78
2023/05/01 11:17:38;;;;;;;5.97;3.03;;;;;;;9.83;100.00;92472.22;5070480;28;20044;-77
2023/05/01 11:20:05;;;;;;;4.53;3.15;;;;;;;9.80;100.00;92460.50;5069570;28;20052;-75
2023/05/01 11:22:35;;;;;;;4.28;3.20;;;;;;;9.83;100.00;92464.38;5073017;28;20040;-77
2023/05/01 11:25:05;;;;;;;5.38;3.47;;;;;;;9.91;100.00;92461.91;5054786;28;20039;-78
2023/05/01 11:27:31;;;;;;;4.70;3.35;;;;;;;10.00;100.00;92457.59;5075240;28;20115;-78
2023/05/01 11:29:58;;;;;;;8.05;3.90;;;;;;;10.06;100.00;92449.69;5074781;28;20071;-78
2023/05/01 11:32:28;;;;;;;8.73;3.17;;;;;;;10.07;100.00;92459.88;5072856;28;20036;-78
2023/05/01 11:34:55;;;;;;;4.88;3.88;;;;;;;9.71;100.00;92460.34;5072659;28;20433;-77